Time;durP1;ratioP1;P1;durP2;ratioP2;P2;SDS_P1;SDS_P2;PMS_P1;PMS_P2;Temp;Humidity;BMP_temperature;BMP_pressure;BME280_temperature;BME280_humidity;BME280_pressure;Samples;Min_cycle;Max_cycle;Signal;HPM_P1;HPM_P2
2021/01/10 00:01:27;;;;;;;92.97;36.05;;;2.10;99.90;;;;;;5057995;28;20592;-85
2021/01/10 00:03:53;;;;;;;99.72;36.53;;;2.10;99.90;;;;;;5059702;28;20252;-88
2021/01/10 00:06:19;;;;;;;91.10;39.15;;;2.00;99.90;;;;;;5056936;28;20288;-87
2021/01/10 00:08:46;;;;;;;81.95;36.75;;;2.00;99.90;;;;;;5057339;28;20248;-87
2021/01/10 00:11:12;;;;;;;81.00;34.05;;;2.00;99.90;;;;;;5057476;28;20224;-88
2021/01/10 00:13:38;;;;;;;84.70;37.15;;;2.10;99.90;;;;;;5071585;28;20222;-87
2021/01/10 00:16:05;;;;;;;103.15;38.22;;;2.00;99.90;;;;;;5066082;28;20561;-87
2021/01/10 00:18:32;;;;;;;84.93;36.10;;;2.10;99.90;;;;;;5068964;28;20197;-87
2021/01/10 00:20:58;;;;;;;83.53;38.78;;;2.00;99.90;;;;;;5077038;28;20192;-87
2021/01/10 00:23:25;;;;;;;85.78;35.13;;;2.00;99.90;;;;;;5077485;28;20217;-87
2021/01/10 00:25:52;;;;;;;74.35;34.75;;;2.00;99.90;;;;;;5077151;28;20711;-88
2021/01/10 00:28:19;;;;;;;71.78;34.40;;;2.00;99.90;;;;;;5077553;28;20201;-88
2021/01/10 00:30:45;;;;;;;72.00;36.40;;;2.00;99.90;;;;;;5077333;28;20201;-88
2021/01/10 00:33:11;;;;;;;83.68;38.55;;;2.00;99.90;;;;;;5077240;28;20224;-88
2021/01/10 00:35:39;;;;;;;94.10;38.38;;;2.10;99.90;;;;;;5077598;28;20200;-85
2021/01/10 00:38:05;;;;;;;81.70;38.58;;;2.00;99.90;;;;;;5077226;28;20268;-86
2021/01/10 00:40:31;;;;;;;92.90;38.97;;;2.00;99.90;;;;;;5077472;28;20554;-86
2021/01/10 00:42:57;;;;;;;89.85;39.90;;;2.00;99.90;;;;;;5076107;28;20249;-88
2021/01/10 00:45:24;;;;;;;102.50;39.70;;;2.00;99.90;;;;;;5068690;28;20216;-87
2021/01/10 00:47:54;;;;;;;88.35;39.70;;;2.00;99.90;;;;;;5076787;28;20200;-87
2021/01/10 00:50:20;;;;;;;88.28;39.65;;;2.00;99.90;;;;;;5076726;28;20540;-87
2021/01/10 00:52:47;;;;;;;74.05;37.85;;;2.10;99.90;;;;;;5076519;28;20214;-88
2021/01/10 00:55:15;;;;;;;90.30;38.28;;;2.00;99.90;;;;;;5077467;28;20253;-87
2021/01/10 00:57:41;;;;;;;86.43;38.75;;;2.10;99.90;;;;;;5080148;28;20227;-87
2021/01/10 01:00:12;;;;;;;87.47;38.55;;;2.00;99.90;;;;;;5080625;28;20202;-87
2021/01/10 01:02:38;;;;;;;95.95;39.72;;;2.00;99.90;;;;;;5081425;28;20217;-87
2021/01/10 01:05:06;;;;;;;74.38;37.75;;;2.10;99.90;;;;;;5081113;28;20247;-88
2021/01/10 01:07:32;;;;;;;83.28;36.38;;;2.10;99.90;;;;;;5083406;28;20205;-88
2021/01/10 01:09:59;;;;;;;93.82;40.70;;;2.10;99.90;;;;;;5080932;28;20203;-87
2021/01/10 01:12:26;;;;;;;79.07;38.40;;;2.10;99.90;;;;;;5080995;28;20220;-88
2021/01/10 01:14:52;;;;;;;75.03;37.03;;;2.10;99.90;;;;;;5072647;28;20263;-88
2021/01/10 01:17:19;;;;;;;83.53;36.75;;;2.10;99.90;;;;;;5081351;28;20218;-87
2021/01/10 01:19:45;;;;;;;78.72;37.55;;;2.10;99.90;;;;;;5080483;28;20702;-87
2021/01/10 01:22:11;;;;;;;75.28;37.00;;;2.10;99.90;;;;;;5081264;28;20212;-88
2021/01/10 01:24:38;;;;;;;79.18;37.67;;;2.10;99.90;;;;;;5081358;28;20599;-90
2021/01/10 01:27:05;;;;;;;72.47;33.45;;;2.10;99.90;;;;;;5080409;28;20204;-87
2021/01/10 01:29:31;;;;;;;71.88;37.50;;;2.00;99.90;;;;;;5079753;28;20197;-87
2021/01/10 01:31:58;;;;;;;75.20;34.50;;;2.00;99.90;;;;;;5080238;28;20197;-87
2021/01/10 01:34:24;;;;;;;68.88;37.75;;;2.10;99.90;;;;;;5081023;28;20290;-88
2021/01/10 01:36:50;;;;;;;66.97;33.78;;;2.10;99.90;;;;;;5078925;28;20233;-88
2021/01/10 01:39:17;;;;;;;80.53;37.30;;;2.10;99.90;;;;;;5080114;28;20196;-88
2021/01/10 01:41:43;;;;;;;66.13;35.00;;;2.10;99.90;;;;;;5079098;28;20203;-87
2021/01/10 01:44:10;;;;;;;71.72;33.65;;;2.10;99.90;;;;;;5076795;28;20247;-87
2021/01/10 01:46:37;;;;;;;80.75;39.47;;;2.00;99.90;;;;;;5073189;28;20610;-88
2021/01/10 01:49:06;;;;;;;77.47;37.95;;;2.00;99.90;;;;;;5079375;28;20197;-88
2021/01/10 01:51:33;;;;;;;71.07;35.88;;;2.00;99.90;;;;;;5079632;28;20200;-88
2021/01/10 01:54:00;;;;;;;72.68;37.92;;;2.00;99.90;;;;;;5078374;28;20219;-87
2021/01/10 01:56:27;;;;;;;75.07;36.60;;;2.00;99.90;;;;;;5078261;28;20280;-88
2021/01/10 01:59:01;;;;;;;79.53;36.40;;;2.00;99.90;;;;;;5078746;28;20201;-88
2021/01/10 02:01:30;;;;;;;67.10;34.85;;;2.00;99.90;;;;;;5079396;28;20218;-87
2021/01/10 02:04:01;;;;;;;75.43;37.30;;;1.90;99.90;;;;;;5079096;28;20216;-87
2021/01/10 02:06:36;;;;;;;69.20;33.63;;;1.90;99.90;;;;;;5077802;28;20209;-87
2021/01/10 02:09:08;;;;;;;67.07;34.22;;;1.90;99.90;;;;;;5079196;28;20562;-87
2021/01/10 02:11:37;;;;;;;70.97;35.53;;;1.90;99.90;;;;;;5080706;28;20197;-88
2021/01/10 02:14:07;;;;;;;80.40;35.22;;;1.90;99.90;;;;;;5079565;28;20319;-88
2021/01/10 02:16:37;;;;;;;73.90;35.50;;;1.90;99.90;;;;;;5064572;28;20186;-86
2021/01/10 02:19:07;;;;;;;72.53;34.25;;;1.80;99.90;;;;;;5059401;28;20203;-88
2021/01/10 02:21:34;;;;;;;70.75;33.75;;;1.70;99.90;;;;;;5058991;28;20217;-87
2021/01/10 02:24:06;;;;;;;66.80;31.88;;;1.70;99.90;;;;;;5058843;28;20229;-87
2021/01/10 02:26:33;;;;;;;67.10;33.13;;;1.60;99.90;;;;;;5060390;28;20614;-89
2021/01/10 02:28:59;;;;;;;62.22;31.73;;;1.60;99.90;;;;;;5070331;28;20208;-88
2021/01/10 02:31:29;;;;;;;65.80;32.20;;;1.60;99.90;;;;;;5060336;28;20198;-87
2021/01/10 02:33:56;;;;;;;67.53;33.83;;;1.70;99.90;;;;;;5070659;28;20221;-87
2021/01/10 02:36:27;;;;;;;66.57;32.13;;;1.70;99.90;;;;;;5059669;28;20185;-89
2021/01/10 02:39:02;;;;;;;55.60;30.17;;;1.70;99.90;;;;;;5059876;28;20177;-87
2021/01/10 02:41:40;;;;;;;57.63;29.40;;;1.60;99.90;;;;;;5059594;28;20182;-88
2021/01/10 02:44:16;;;;;;;62.08;30.30;;;1.60;99.90;;;;;;5075428;28;20193;-88
2021/01/10 02:46:46;;;;;;;50.00;28.80;;;1.60;99.90;;;;;;5073796;28;20212;-88
2021/01/10 02:49:12;;;;;;;58.78;31.05;;;1.50;99.90;;;;;;5079027;28;20670;-88
2021/01/10 02:51:39;;;;;;;67.35;30.80;;;1.50;99.90;;;;;;5079175;28;20209;-88
2021/01/10 02:54:05;;;;;;;60.72;29.17;;;1.50;99.90;;;;;;5078319;28;20221;-88
2021/01/10 02:56:36;;;;;;;57.70;30.70;;;1.50;99.90;;;;;;5078743;28;20200;-88
2021/01/10 02:59:03;;;;;;;60.35;28.80;;;1.40;99.90;;;;;;5078583;28;20250;-86
2021/01/10 03:01:30;;;;;;;63.90;32.00;;;1.40;99.90;;;;;;5077951;28;20690;-89
2021/01/10 03:03:57;;;;;;;75.43;33.53;;;1.40;99.90;;;;;;5078695;28;20269;-88
2021/01/10 03:06:23;;;;;;;65.25;32.55;;;1.40;99.90;;;;;;5078201;28;20225;-87
2021/01/10 03:08:50;;;;;;;89.88;34.67;;;1.50;99.90;;;;;;5078687;28;20280;-87
2021/01/10 03:11:17;;;;;;;80.57;34.45;;;1.50;99.90;;;;;;5077686;28;20222;-87
2021/01/10 03:13:44;;;;;;;83.93;33.42;;;1.50;99.90;;;;;;5078677;28;20338;-84
2021/01/10 03:16:10;;;;;;;123.32;32.72;;;1.50;99.90;;;;;;5067569;28;20189;-87
2021/01/10 03:18:36;;;;;;;183.50;38.47;;;1.40;99.90;;;;;;5058009;28;20288;-87
2021/01/10 03:21:03;;;;;;;110.30;30.88;;;1.30;99.90;;;;;;5059362;28;20196;-87
2021/01/10 03:23:30;;;;;;;158.65;35.10;;;1.20;99.90;;;;;;5059069;28;20225;-88
2021/01/10 03:25:57;;;;;;;97.65;30.20;;;1.20;99.90;;;;;;5058742;28;20217;-87
2021/01/10 03:28:23;;;;;;;103.25;31.17;;;1.10;99.90;;;;;;5058461;28;20689;-87
2021/01/10 03:30:50;;;;;;;102.97;31.85;;;1.00;99.90;;;;;;5061098;28;20207;-87
2021/01/10 03:33:16;;;;;;;106.25;31.95;;;0.90;99.90;;;;;;5060225;28;20221;-88
2021/01/10 03:35:43;;;;;;;95.22;30.08;;;0.90;99.90;;;;;;5059766;28;20204;-87
2021/01/10 03:38:09;;;;;;;88.40;29.65;;;0.80;99.90;;;;;;5059760;28;20219;-87
2021/01/10 03:40:35;;;;;;;116.68;29.13;;;0.80;99.90;;;;;;5060753;28;20204;-87
2021/01/10 03:43:02;;;;;;;122.03;30.23;;;0.80;99.90;;;;;;5068126;28;20215;-87
2021/01/10 03:45:30;;;;;;;116.57;31.88;;;0.80;99.90;;;;;;5071293;28;20263;-87
2021/01/10 03:47:57;;;;;;;112.60;30.58;;;0.80;99.90;;;;;;5079851;28;20200;-87
2021/01/10 03:50:23;;;;;;;93.07;27.17;;;0.70;99.90;;;;;;5081518;28;20222;-88
2021/01/10 03:52:50;;;;;;;170.90;33.22;;;0.70;99.90;;;;;;5081900;28;20216;-89
2021/01/10 03:55:16;;;;;;;109.75;30.52;;;0.70;99.90;;;;;;5081434;28;20196;-88
2021/01/10 03:57:42;;;;;;;94.00;29.25;;;0.70;99.90;;;;;;5079649;28;20221;-87
2021/01/10 04:00:10;;;;;;;108.95;30.02;;;0.60;99.90;;;;;;5079874;28;20210;-87
2021/01/10 04:02:37;;;;;;;115.45;34.35;;;0.60;99.90;;;;;;5080019;28;20560;-88
2021/01/10 04:05:05;;;;;;;82.53;30.70;;;0.70;99.90;;;;;;5079797;28;20218;-87
2021/01/10 04:07:32;;;;;;;85.32;30.15;;;0.70;99.90;;;;;;5083013;28;20200;-88
2021/01/10 04:09:58;;;;;;;96.38;30.02;;;0.70;99.90;;;;;;5087335;28;20683;-87
2021/01/10 04:12:25;;;;;;;107.47;33.65;;;0.80;99.90;;;;;;5091252;22;20239;-78
2021/01/10 04:14:55;;;;;;;106.93;29.80;;;0.80;99.90;;;;;;5060843;28;20547;-78
2021/01/10 04:17:22;;;;;;;109.53;32.72;;;0.80;99.90;;;;;;5068522;28;20556;-80
2021/01/10 04:19:48;;;;;;;99.95;31.83;;;0.80;99.90;;;;;;5061562;28;20193;-80
2021/01/10 04:22:15;;;;;;;97.25;31.50;;;0.80;99.90;;;;;;5061576;28;20212;-79
2021/01/10 04:24:42;;;;;;;130.98;33.80;;;0.80;99.90;;;;;;5061418;28;20196;-80
2021/01/10 04:27:10;;;;;;;149.23;37.03;;;0.80;99.90;;;;;;5061112;28;20201;-76
2021/01/10 04:29:36;;;;;;;90.97;31.63;;;0.80;99.90;;;;;;5060682;28;20201;-79
2021/01/10 04:32:02;;;;;;;118.82;31.65;;;0.90;99.90;;;;;;5065452;28;20204;-80
2021/01/10 04:34:29;;;;;;;87.75;32.33;;;0.90;99.90;;;;;;5066219;28;20205;-79
2021/01/10 04:36:56;;;;;;;112.65;33.80;;;0.80;99.90;;;;;;5065410;28;20204;-80
2021/01/10 04:39:23;;;;;;;94.15;33.42;;;0.90;99.90;;;;;;5065813;28;20208;-79
2021/01/10 04:41:50;;;;;;;128.15;33.50;;;0.90;99.90;;;;;;5066084;28;20198;-80
2021/01/10 04:44:16;;;;;;;123.05;32.60;;;0.90;99.90;;;;;;5073015;28;20216;-79
2021/01/10 04:46:43;;;;;;;112.05;36.17;;;0.90;99.90;;;;;;5065558;28;20270;-80
2021/01/10 04:49:10;;;;;;;93.65;33.17;;;0.80;99.90;;;;;;5065565;28;20192;-80
2021/01/10 04:51:39;;;;;;;96.70;32.15;;;0.80;99.90;;;;;;5064945;28;20229;-79
2021/01/10 04:54:07;;;;;;;87.88;33.38;;;0.80;99.90;;;;;;5065141;28;20241;-79
2021/01/10 04:56:36;;;;;;;83.60;31.95;;;0.80;99.90;;;;;;5064965;28;20198;-79
2021/01/10 04:59:04;;;;;;;153.32;38.50;;;0.80;99.90;;;;;;5064858;28;20204;-80
2021/01/10 05:01:36;;;;;;;90.07;31.77;;;0.80;99.90;;;;;;5064493;28;20219;-80
2021/01/10 05:04:03;;;;;;;124.45;33.20;;;0.70;99.90;;;;;;5064893;28;20624;-79
2021/01/10 05:06:33;;;;;;;128.25;35.63;;;0.70;99.90;;;;;;5064516;28;20209;-78
2021/01/10 05:09:00;;;;;;;116.30;34.78;;;0.70;99.90;;;;;;5065127;28;20693;-80
2021/01/10 05:11:27;;;;;;;117.38;36.70;;;0.60;99.90;;;;;;5064354;28;20216;-79
2021/01/10 05:13:55;;;;;;;125.95;32.40;;;0.70;99.90;;;;;;5072758;28;20598;-79
2021/01/10 05:16:21;;;;;;;158.23;40.55;;;0.60;99.90;;;;;;5076087;28;20190;-80
2021/01/10 05:18:52;;;;;;;109.57;34.60;;;0.70;99.90;;;;;;5085176;28;20250;-79
2021/01/10 05:21:20;;;;;;;108.07;35.03;;;0.70;99.90;;;;;;5084793;28;20548;-79
2021/01/10 05:23:49;;;;;;;113.55;33.53;;;0.70;99.90;;;;;;5084946;28;20219;-80
2021/01/10 05:26:15;;;;;;;126.63;35.58;;;0.70;99.90;;;;;;5083918;28;20227;-79
2021/01/10 05:28:43;;;;;;;143.60;35.90;;;0.70;99.90;;;;;;5082860;28;20211;-80
2021/01/10 05:31:11;;;;;;;114.93;33.25;;;0.60;99.90;;;;;;5084509;28;20609;-79
2021/01/10 05:33:47;;;;;;;112.25;35.42;;;0.70;99.90;;;;;;5084506;28;20220;-80
2021/01/10 05:36:25;;;;;;;105.07;37.40;;;0.70;99.90;;;;;;5083948;28;20692;-79
2021/01/10 05:38:51;;;;;;;123.53;36.85;;;0.70;99.90;;;;;;5083973;28;20683;-81
2021/01/10 05:41:18;;;;;;;115.20;36.35;;;0.70;99.90;;;;;;5083478;28;20278;-79
2021/01/10 05:43:57;;;;;;;116.30;37.95;;;0.70;99.90;;;;;;5077774;28;20209;-79
2021/01/10 05:46:25;;;;;;;116.10;35.97;;;0.70;99.90;;;;;;5069352;28;20203;-79
2021/01/10 05:48:52;;;;;;;98.50;35.25;;;0.80;99.90;;;;;;5083455;28;20200;-80
2021/01/10 05:51:19;;;;;;;90.72;36.83;;;0.80;99.90;;;;;;5083275;28;20200;-80
2021/01/10 05:53:45;;;;;;;106.80;37.03;;;0.80;99.90;;;;;;5083339;28;20218;-80
2021/01/10 05:56:12;;;;;;;124.70;43.28;;;0.80;99.90;;;;;;5083842;28;20283;-79
2021/01/10 05:58:39;;;;;;;107.20;41.42;;;0.80;99.90;;;;;;5083705;28;20196;-79
2021/01/10 06:01:12;;;;;;;107.50;36.20;;;0.80;99.90;;;;;;5084570;28;20243;-80
2021/01/10 06:03:40;;;;;;;104.40;41.17;;;0.90;99.90;;;;;;5084217;28;20270;-80
2021/01/10 06:06:07;;;;;;;126.35;43.80;;;0.90;99.90;;;;;;5084212;28;20281;-80
2021/01/10 06:08:35;;;;;;;113.50;38.13;;;0.90;99.90;;;;;;5084373;28;20705;-79
2021/01/10 06:11:21;;;;;;;104.80;39.45;;;1.00;99.90;;;;;;5084325;28;20198;-80
2021/01/10 06:13:50;;;;;;;111.13;41.17;;;1.10;99.90;;;;;;5079800;28;20216;-80
2021/01/10 06:16:17;;;;;;;116.43;42.47;;;1.00;99.90;;;;;;5066311;28;20609;-80
2021/01/10 06:18:49;;;;;;;108.40;37.72;;;1.10;99.90;;;;;;5083695;28;20192;-80
2021/01/10 06:21:21;;;;;;;112.25;41.00;;;1.10;99.90;;;;;;5083812;28;20190;-76
2021/01/10 06:23:51;;;;;;;121.28;41.95;;;1.10;99.90;;;;;;5083708;28;20633;-79
2021/01/10 06:26:20;;;;;;;128.52;43.40;;;1.10;99.90;;;;;;5083756;28;20213;-80
2021/01/10 06:28:58;;;;;;;131.75;45.05;;;1.10;99.90;;;;;;5082913;28;20266;-79
2021/01/10 06:31:27;;;;;;;100.03;40.15;;;1.00;99.90;;;;;;5083986;28;20182;-80
2021/01/10 06:34:02;;;;;;;116.78;43.90;;;1.00;99.90;;;;;;5084052;28;20221;-79
2021/01/10 06:36:30;;;;;;;123.72;44.05;;;1.10;99.90;;;;;;5082747;28;20186;-80
2021/01/10 06:39:03;;;;;;;120.95;43.85;;;1.10;99.90;;;;;;5083788;28;20196;-80
2021/01/10 06:42:05;;;;;;;136.73;45.55;;;1.10;99.90;;;;;;5083265;28;20257;-79
2021/01/10 06:44:35;;;;;;;120.80;42.05;;;1.20;99.90;;;;;;5072352;28;20189;-80
2021/01/10 06:47:01;;;;;;;123.38;43.38;;;1.20;99.90;;;;;;5081244;28;20212;-79
2021/01/10 06:49:29;;;;;;;113.28;42.88;;;1.20;99.90;;;;;;5083333;28;20712;-79
2021/01/10 06:51:57;;;;;;;129.50;41.83;;;1.20;99.90;;;;;;5083249;28;20221;-79
2021/01/10 06:54:24;;;;;;;122.03;42.65;;;1.20;99.90;;;;;;5083206;28;20251;-80
2021/01/10 06:56:51;;;;;;;117.63;44.03;;;1.30;99.90;;;;;;5082261;28;20204;-80
2021/01/10 06:59:19;;;;;;;130.35;43.85;;;1.20;99.90;;;;;;5082779;28;20200;-79
2021/01/10 07:02:01;;;;;;;132.98;46.13;;;1.20;99.90;;;;;;5082208;28;20201;-80
2021/01/10 07:05:03;;;;;;;140.40;44.85;;;1.20;99.90;;;;;;5082499;28;20251;-80
2021/01/10 07:07:37;;;;;;;138.77;42.08;;;1.20;99.90;;;;;;5082638;28;20229;-80
2021/01/10 07:10:05;;;;;;;123.15;42.28;;;1.20;99.90;;;;;;5082418;28;20208;-79
2021/01/10 07:12:31;;;;;;;136.55;46.53;;;1.10;99.90;;;;;;5080122;28;20252;-79
2021/01/10 07:15:23;;;;;;;120.55;44.25;;;1.10;99.90;;;;;;5070774;28;20186;-79
2021/01/10 07:18:10;;;;;;;126.68;44.65;;;1.10;99.90;;;;;;5081347;28;20201;-80
2021/01/10 07:20:45;;;;;;;117.68;44.63;;;1.10;99.90;;;;;;5075947;28;20202;-79
2021/01/10 07:23:33;;;;;;;118.78;43.35;;;1.10;99.90;;;;;;5080931;28;20245;-80
2021/01/10 07:26:01;;;;;;;122.00;40.10;;;1.20;99.90;;;;;;5080174;28;20219;-79
2021/01/10 07:28:42;;;;;;;118.43;42.17;;;1.20;99.90;;;;;;5079641;28;20286;-79
2021/01/10 07:31:15;;;;;;;137.18;42.47;;;1.20;99.90;;;;;;5080189;28;20192;-78
2021/01/10 07:33:41;;;;;;;125.30;42.63;;;1.20;99.90;;;;;;5080864;28;20281;-79
2021/01/10 07:36:09;;;;;;;121.75;40.72;;;1.20;99.90;;;;;;5079170;28;20193;-77
2021/01/10 07:38:37;;;;;;;112.10;40.08;;;1.20;99.90;;;;;;5079842;28;20218;-79
2021/01/10 07:41:27;;;;;;;131.60;42.95;;;1.20;99.90;;;;;;5079815;28;20212;-78
2021/01/10 07:43:55;;;;;;;143.05;42.35;;;1.20;99.90;;;;;;5074776;28;20228;-78
2021/01/10 07:47:01;;;;;;;121.00;40.17;;;1.20;99.90;;;;;;5071222;28;20212;-78
2021/01/10 07:49:37;;;;;;;123.78;41.75;;;1.20;99.90;;;;;;5080308;28;20207;-79
2021/01/10 07:52:04;;;;;;;105.50;38.03;;;1.30;99.90;;;;;;5078991;28;20222;-78
2021/01/10 07:54:53;;;;;;;110.50;41.05;;;1.30;99.90;;;;;;5080180;28;20291;-78
2021/01/10 07:57:31;;;;;;;123.25;40.95;;;1.30;99.90;;;;;;5079207;28;20196;-78
2021/01/10 08:00:14;;;;;;;113.40;41.10;;;1.30;99.90;;;;;;5079913;28;20721;-79
2021/01/10 08:02:58;;;;;;;127.10;40.17;;;1.30;99.90;;;;;;5079288;28;20220;-79
2021/01/10 08:05:32;;;;;;;110.60;37.80;;;1.30;99.90;;;;;;5079033;28;20220;-79
2021/01/10 08:08:04;;;;;;;109.75;43.20;;;1.30;99.90;;;;;;5078095;28;20652;-79
2021/01/10 08:10:45;;;;;;;111.95;40.70;;;1.30;99.90;;;;;;5079928;28;20200;-78
2021/01/10 08:13:30;;;;;;;112.10;37.55;;;1.30;99.90;;;;;;5073740;28;20220;-80
2021/01/10 08:15:58;;;;;;;114.18;38.90;;;1.30;99.90;;;;;;5069493;28;20192;-79
2021/01/10 08:18:27;;;;;;;106.65;40.25;;;1.40;99.90;;;;;;5078620;28;20192;-78
2021/01/10 08:20:54;;;;;;;99.07;37.92;;;1.30;99.90;;;;;;5078502;28;20195;-78
2021/01/10 08:23:22;;;;;;;112.22;40.33;;;1.40;99.90;;;;;;5078804;28;20243;-79
2021/01/10 08:25:51;;;;;;;105.32;37.83;;;1.40;99.90;;;;;;5078176;28;20339;-78
2021/01/10 08:28:18;;;;;;;94.32;35.97;;;1.40;99.90;;;;;;5077283;28;20270;-78
2021/01/10 08:30:45;;;;;;;91.32;35.72;;;1.30;99.90;;;;;;5078897;28;20207;-79
2021/01/10 08:33:17;;;;;;;90.30;37.08;;;1.30;99.90;;;;;;5074522;28;20677;-78
2021/01/10 08:35:44;;;;;;;85.47;37.92;;;1.30;99.90;;;;;;5074428;28;20180;-77
2021/01/10 08:38:10;;;;;;;90.28;35.35;;;1.40;99.90;;;;;;5074572;28;20215;-78
2021/01/10 08:40:37;;;;;;;86.93;37.78;;;1.50;99.90;;;;;;5074855;28;20191;-79
2021/01/10 08:43:04;;;;;;;73.05;35.45;;;1.50;99.90;;;;;;5069895;28;20225;-78
2021/01/10 08:45:31;;;;;;;79.60;37.28;;;1.50;99.90;;;;;;5067263;28;20292;-78
2021/01/10 08:48:01;;;;;;;75.65;33.00;;;1.50;99.90;;;;;;5075085;28;20203;-78
2021/01/10 08:50:37;;;;;;;69.05;34.22;;;1.50;99.90;;;;;;5075660;28;20181;-78
2021/01/10 08:53:04;;;;;;;82.68;33.67;;;1.50;99.90;;;;;;5075934;28;20224;-78
2021/01/10 08:55:39;;;;;;;78.40;33.95;;;1.50;99.90;;;;;;5078230;28;20196;-78
2021/01/10 08:58:07;;;;;;;76.47;36.10;;;1.60;99.90;;;;;;5077304;28;20188;-79
2021/01/10 09:00:34;;;;;;;82.25;33.20;;;1.60;99.90;;;;;;5076307;28;20196;-78
2021/01/10 09:03:14;;;;;;;72.75;33.20;;;1.70;99.90;;;;;;5076141;28;20298;-78
2021/01/10 09:05:41;;;;;;;65.55;32.15;;;1.70;99.90;;;;;;5076584;28;20262;-79
2021/01/10 09:08:12;;;;;;;77.00;33.83;;;1.70;99.90;;;;;;5075964;28;20200;-78
2021/01/10 09:10:46;;;;;;;65.90;32.47;;;1.80;99.90;;;;;;5076776;28;20259;-78
2021/01/10 09:13:17;;;;;;;71.03;32.30;;;1.80;99.90;;;;;;5068704;28;20230;-79
2021/01/10 09:15:45;;;;;;;70.00;32.10;;;1.80;99.90;;;;;;5064242;28;20209;-77
2021/01/10 09:18:19;;;;;;;71.55;30.77;;;1.80;99.90;;;;;;5058703;28;20193;-79
2021/01/10 09:20:51;;;;;;;70.32;31.95;;;1.80;99.90;;;;;;5059957;28;20245;-79
2021/01/10 09:23:18;;;;;;;65.68;31.88;;;1.80;99.90;;;;;;5059852;28;20217;-79
2021/01/10 09:25:46;;;;;;;66.75;30.77;;;1.90;99.90;;;;;;5059678;28;20214;-78
2021/01/10 09:28:14;;;;;;;66.60;32.45;;;2.00;99.90;;;;;;5059650;28;20197;-76
2021/01/10 09:30:41;;;;;;;62.15;31.27;;;2.00;99.90;;;;;;5059538;28;20202;-79
2021/01/10 09:33:08;;;;;;;63.50;30.73;;;2.10;99.90;;;;;;5060505;28;20662;-78
2021/01/10 09:35:39;;;;;;;61.05;28.58;;;2.10;99.90;;;;;;5060137;28;20248;-79
2021/01/10 09:38:10;;;;;;;68.05;28.42;;;2.20;99.90;;;;;;5059586;28;20271;-78
2021/01/10 09:40:36;;;;;;;55.53;28.55;;;2.20;99.90;;;;;;5059930;28;20256;-79
2021/01/10 09:43:03;;;;;;;62.42;31.25;;;2.20;99.90;;;;;;5061343;28;20217;-78
2021/01/10 09:45:34;;;;;;;54.03;26.23;;;2.20;99.90;;;;;;5074403;28;20205;-79
2021/01/10 09:48:02;;;;;;;49.88;26.75;;;2.20;99.90;;;;;;5059174;28;20237;-78
2021/01/10 09:50:28;;;;;;;59.92;27.15;;;2.20;99.90;;;;;;5058803;28;20263;-78
2021/01/10 09:52:54;;;;;;;50.70;28.42;;;2.20;99.90;;;;;;5059195;28;20237;-77
2021/01/10 09:55:25;;;;;;;54.05;25.65;;;2.10;99.90;;;;;;5059287;28;20277;-79
2021/01/10 09:57:52;;;;;;;55.30;27.52;;;2.10;99.90;;;;;;5059618;28;20955;-79
2021/01/10 10:00:20;;;;;;;49.80;25.48;;;2.10;99.90;;;;;;5058566;28;20692;-79
2021/01/10 10:02:48;;;;;;;56.75;27.90;;;2.10;99.90;;;;;;5059318;28;20228;-79
2021/01/10 10:05:16;;;;;;;50.03;24.85;;;2.00;99.90;;;;;;5059227;28;20198;-78
2021/01/10 10:07:43;;;;;;;48.05;22.48;;;2.00;99.90;;;;;;5059171;28;20317;-79
2021/01/10 10:10:24;;;;;;;55.92;26.55;;;2.10;99.90;;;;;;5060146;28;20234;-78
2021/01/10 10:12:52;;;;;;;52.95;26.52;;;2.10;99.90;;;;;;5060105;28;20232;-79
2021/01/10 10:15:19;;;;;;;50.08;23.55;;;2.10;99.90;;;;;;5121030;22;20227;-85
2021/01/10 10:17:48;;;;;;;49.92;25.17;;;2.20;99.90;;;;;;5079495;28;20334;-84
2021/01/10 10:20:15;;;;;;;44.33;25.65;;;2.20;99.90;;;;;;5074373;28;20663;-86
2021/01/10 10:22:44;;;;;;;45.35;26.27;;;2.30;99.90;;;;;;5066947;28;20194;-82
2021/01/10 10:25:12;;;;;;;46.10;24.25;;;2.30;99.90;;;;;;5083123;28;20218;-84
2021/01/10 10:27:55;;;;;;;50.63;24.80;;;2.40;99.90;;;;;;5084586;28;20201;-84
2021/01/10 10:30:23;;;;;;;61.33;25.35;;;2.40;99.90;;;;;;5082723;28;20204;-85
2021/01/10 10:32:49;;;;;;;58.15;27.83;;;2.40;99.90;;;;;;5084234;28;20260;-86
2021/01/10 10:35:15;;;;;;;50.67;25.63;;;2.50;99.90;;;;;;5085022;28;20686;-85
2021/01/10 10:37:42;;;;;;;48.78;25.48;;;2.50;99.90;;;;;;5084612;28;20269;-85
2021/01/10 10:40:09;;;;;;;48.92;24.88;;;2.50;99.90;;;;;;5084325;28;20231;-86
2021/01/10 10:42:36;;;;;;;44.63;23.85;;;2.40;99.90;;;;;;5084772;28;20198;-81
2021/01/10 10:45:02;;;;;;;51.80;25.98;;;2.40;99.90;;;;;;5075496;28;20213;-85
2021/01/10 10:47:29;;;;;;;49.95;26.45;;;2.40;99.90;;;;;;5071410;28;20297;-83
2021/01/10 10:49:56;;;;;;;49.83;26.65;;;2.40;99.90;;;;;;5064719;28;20223;-87
2021/01/10 10:52:22;;;;;;;56.65;26.42;;;2.50;99.90;;;;;;5064581;28;20205;-84
2021/01/10 10:54:48;;;;;;;52.70;27.25;;;2.60;99.90;;;;;;5064563;28;20244;-84
2021/01/10 10:57:15;;;;;;;54.90;26.27;;;2.60;99.90;;;;;;5063346;28;20189;-84
2021/01/10 10:59:41;;;;;;;45.60;24.00;;;2.60;99.90;;;;;;5065653;28;20212;-86
2021/01/10 11:02:10;;;;;;;59.72;27.90;;;2.70;99.90;;;;;;5065121;28;20284;-86
2021/01/10 11:04:39;;;;;;;53.25;25.85;;;2.70;99.90;;;;;;5066283;28;20214;-85
2021/01/10 11:07:05;;;;;;;51.85;28.65;;;2.70;99.90;;;;;;5065446;28;20267;-84
2021/01/10 11:09:32;;;;;;;52.38;28.02;;;2.70;99.90;;;;;;5065436;28;20231;-82
2021/01/10 11:12:07;;;;;;;63.53;29.83;;;2.70;99.90;;;;;;5065436;28;20588;-84
2021/01/10 11:14:33;;;;;;;52.67;28.00;;;2.70;99.90;;;;;;5073295;28;20235;-86
2021/01/10 11:16:59;;;;;;;61.15;28.00;;;2.70;99.90;;;;;;5075964;28;20279;-84
2021/01/10 11:19:26;;;;;;;54.35;28.08;;;2.80;99.90;;;;;;5085232;28;20239;-83
2021/01/10 11:21:55;;;;;;;56.47;29.17;;;2.80;99.90;;;;;;5083856;28;20663;-84
2021/01/10 11:24:21;;;;;;;50.78;26.58;;;2.90;99.90;;;;;;5083493;28;20240;-86
2021/01/10 11:26:47;;;;;;;57.50;26.67;;;3.00;99.90;;;;;;5083121;28;20253;-85
2021/01/10 11:29:17;;;;;;;49.47;26.95;;;3.00;99.90;;;;;;5087427;28;20242;-88
2021/01/10 11:31:44;;;;;;;54.72;26.02;;;3.20;99.90;;;;;;5091824;28;20189;-85
2021/01/10 11:34:11;;;;;;;50.05;23.08;;;3.20;99.90;;;;;;5081950;28;20221;-84
2021/01/10 11:36:42;;;;;;;46.28;27.38;;;3.20;99.90;;;;;;5082172;28;20198;-84
2021/01/10 11:39:09;;;;;;;44.30;24.27;;;3.20;99.90;;;;;;5082696;28;20198;-86
2021/01/10 11:41:37;;;;;;;46.35;24.30;;;3.20;99.90;;;;;;5084970;28;20704;-85
2021/01/10 11:44:04;;;;;;;49.35;24.90;;;3.20;99.90;;;;;;5083763;28;20236;-85
2021/01/10 11:46:31;;;;;;;51.60;26.65;;;3.20;99.90;;;;;;5083890;28;20219;-87
2021/01/10 11:48:57;;;;;;;51.92;25.38;;;3.30;99.90;;;;;;5084361;28;20212;-85
2021/01/10 11:51:25;;;;;;;42.88;24.38;;;3.40;99.90;;;;;;5084300;28;20198;-84
2021/01/10 11:53:52;;;;;;;45.58;25.17;;;3.40;99.90;;;;;;5082524;28;20218;-85
2021/01/10 11:56:19;;;;;;;45.38;25.05;;;3.50;99.90;;;;;;5082978;28;20211;-84
2021/01/10 11:58:46;;;;;;;43.20;23.67;;;3.60;99.90;;;;;;5083399;28;20197;-85
2021/01/10 12:01:12;;;;;;;41.45;23.05;;;3.70;99.90;;;;;;5083853;28;20194;-85
2021/01/10 12:03:38;;;;;;;50.10;24.45;;;3.80;99.90;;;;;;5085380;28;20216;-86
2021/01/10 12:06:05;;;;;;;43.40;22.52;;;3.80;99.90;;;;;;5084858;28;20726;-84
2021/01/10 12:08:32;;;;;;;49.90;23.98;;;3.80;99.90;;;;;;5084704;28;20670;-84
2021/01/10 12:10:59;;;;;;;49.22;24.05;;;4.00;99.90;;;;;;5084103;28;20207;-86
2021/01/10 12:13:26;;;;;;;47.50;22.33;;;4.10;99.90;;;;;;5084793;28;20652;-85
2021/01/10 12:15:53;;;;;;;47.72;24.38;;;4.30;99.90;;;;;;5076662;28;20621;-86
2021/01/10 12:18:19;;;;;;;40.63;22.60;;;4.60;99.90;;;;;;5086141;28;20202;-87
2021/01/10 12:20:45;;;;;;;35.72;19.70;;;5.00;99.90;;;;;;5084368;28;20281;-86
2021/01/10 12:23:12;;;;;;;38.03;21.33;;;5.30;99.90;;;;;;5082927;28;20193;-84
2021/01/10 12:25:38;;;;;;;40.03;22.80;;;5.30;99.90;;;;;;5083951;28;20225;-85
2021/01/10 12:28:05;;;;;;;33.75;19.67;;;5.30;99.90;;;;;;5086062;28;20285;-84
2021/01/10 12:30:32;;;;;;;47.75;21.60;;;5.30;99.90;;;;;;5081586;28;20632;-83
2021/01/10 12:32:59;;;;;;;31.30;19.15;;;5.10;99.90;;;;;;5082804;28;20223;-84
2021/01/10 12:35:26;;;;;;;40.33;20.15;;;5.00;99.90;;;;;;5080348;28;20214;-82
2021/01/10 12:37:52;;;;;;;41.15;20.40;;;4.90;99.90;;;;;;5077711;28;20285;-84
2021/01/10 12:40:19;;;;;;;40.92;21.95;;;5.00;99.90;;;;;;5083977;28;20201;-86
2021/01/10 12:42:47;;;;;;;41.30;21.63;;;4.80;99.90;;;;;;5083737;28;20201;-85